sensor_id;sensor_type;location;lat;lon;timestamp;P1;durP1;ratioP1;P2;durP2;ratioP2
24729;SDS011;12832;52.392;13.066;2023-02-15T00:01:33;2.33;;;2.13;;
24729;SDS011;12832;52.392;13.066;2023-02-15T00:04:00;2.40;;;2.20;;
24729;SDS011;12832;52.392;13.066;2023-02-15T00:06:26;2.42;;;2.22;;
24729;SDS011;12832;52.392;13.066;2023-02-15T00:08:53;2.42;;;2.22;;
24729;SDS011;12832;52.392;13.066;2023-02-15T00:11:20;2.70;;;2.50;;
24729;SDS011;12832;52.392;13.066;2023-02-15T00:14:18;2.30;;;2.10;;
24729;SDS011;12832;52.392;13.066;2023-02-15T00:16:47;3.13;;;2.33;;
24729;SDS011;12832;52.392;13.066;2023-02-15T00:19:15;2.40;;;2.20;;
24729;SDS011;12832;52.392;13.066;2023-02-15T00:21:45;2.25;;;2.05;;
24729;SDS011;12832;52.392;13.066;2023-02-15T00:24:15;2.15;;;1.95;;
24729;SDS011;12832;52.392;13.066;2023-02-15T00:26:43;2.30;;;2.20;;
24729;SDS011;12832;52.392;13.066;2023-02-15T00:29:11;2.40;;;2.20;;
24729;SDS011;12832;52.392;13.066;2023-02-15T00:31:38;2.30;;;2.10;;
24729;SDS011;12832;52.392;13.066;2023-02-15T00:34:06;2.22;;;2.03;;
24729;SDS011;12832;52.392;13.066;2023-02-15T00:36:37;2.55;;;2.33;;
24729;SDS011;12832;52.392;13.066;2023-02-15T00:39:04;2.20;;;2.08;;
24729;SDS011;12832;52.392;13.066;2023-02-15T00:41:33;2.33;;;2.13;;
24729;SDS011;12832;52.392;13.066;2023-02-15T00:43:59;2.55;;;2.35;;
24729;SDS011;12832;52.392;13.066;2023-02-15T00:46:26;1.95;;;1.85;;
24729;SDS011;12832;52.392;13.066;2023-02-15T00:48:52;2.40;;;2.20;;
24729;SDS011;12832;52.392;13.066;2023-02-15T00:51:18;2.08;;;1.98;;
24729;SDS011;12832;52.392;13.066;2023-02-15T00:53:45;2.20;;;2.10;;
24729;SDS011;12832;52.392;13.066;2023-02-15T00:56:12;1.98;;;1.88;;
24729;SDS011;12832;52.392;13.066;2023-02-15T00:58:38;2.67;;;2.47;;
24729;SDS011;12832;52.392;13.066;2023-02-15T01:01:05;2.30;;;2.10;;
24729;SDS011;12832;52.392;13.066;2023-02-15T01:03:34;2.45;;;2.25;;
24729;SDS011;12832;52.392;13.066;2023-02-15T01:06:00;2.17;;;2.00;;
24729;SDS011;12832;52.392;13.066;2023-02-15T01:08:28;2.40;;;2.20;;
24729;SDS011;12832;52.392;13.066;2023-02-15T01:10:54;2.90;;;2.10;;
24729;SDS011;12832;52.392;13.066;2023-02-15T01:13:21;2.42;;;2.25;;
24729;SDS011;12832;52.392;13.066;2023-02-15T01:15:52;2.53;;;2.30;;
24729;SDS011;12832;52.392;13.066;2023-02-15T01:18:20;2.13;;;2.03;;
24729;SDS011;12832;52.392;13.066;2023-02-15T01:20:46;2.45;;;2.25;;
24729;SDS011;12832;52.392;13.066;2023-02-15T01:23:13;2.20;;;2.10;;
24729;SDS011;12832;52.392;13.066;2023-02-15T01:25:39;2.38;;;2.17;;
24729;SDS011;12832;52.392;13.066;2023-02-15T01:28:05;2.33;;;2.13;;
24729;SDS011;12832;52.392;13.066;2023-02-15T01:30:31;2.35;;;2.15;;
24729;SDS011;12832;52.392;13.066;2023-02-15T01:32:58;2.58;;;2.38;;
24729;SDS011;12832;52.392;13.066;2023-02-15T01:35:26;2.33;;;2.13;;
24729;SDS011;12832;52.392;13.066;2023-02-15T01:37:54;2.67;;;2.17;;
24729;SDS011;12832;52.392;13.066;2023-02-15T01:40:20;2.30;;;2.20;;
24729;SDS011;12832;52.392;13.066;2023-02-15T01:42:51;2.35;;;2.15;;
24729;SDS011;12832;52.392;13.066;2023-02-15T01:45:20;2.53;;;2.33;;
24729;SDS011;12832;52.392;13.066;2023-02-15T01:53:08;2.50;;;2.30;;
24729;SDS011;12832;52.392;13.066;2023-02-15T01:55:48;2.70;;;2.50;;
24729;SDS011;12832;52.392;13.066;2023-02-15T01:58:21;2.38;;;2.17;;
24729;SDS011;12832;52.392;13.066;2023-02-15T02:00:49;2.15;;;1.95;;
24729;SDS011;12832;52.392;13.066;2023-02-15T02:03:16;2.58;;;2.38;;
24729;SDS011;12832;52.392;13.066;2023-02-15T02:05:43;1.95;;;1.85;;
24729;SDS011;12832;52.392;13.066;2023-02-15T02:08:09;2.50;;;2.30;;
24729;SDS011;12832;52.392;13.066;2023-02-15T02:10:36;2.30;;;2.10;;
24729;SDS011;12832;52.392;13.066;2023-02-15T02:13:03;1.95;;;1.85;;
24729;SDS011;12832;52.392;13.066;2023-02-15T02:18:33;2.42;;;2.28;;
24729;SDS011;12832;52.392;13.066;2023-02-15T02:24:22;2.25;;;2.13;;
24729;SDS011;12832;52.392;13.066;2023-02-15T02:27:18;2.13;;;2.03;;
24729;SDS011;12832;52.392;13.066;2023-02-15T02:35:43;2.30;;;2.20;;
24729;SDS011;12832;52.392;13.066;2023-02-15T02:38:21;2.25;;;2.13;;
24729;SDS011;12832;52.392;13.066;2023-02-15T02:47:12;2.45;;;2.25;;
24729;SDS011;12832;52.392;13.066;2023-02-15T02:49:45;2.72;;;2.08;;
24729;SDS011;12832;52.392;13.066;2023-02-15T02:52:45;2.33;;;2.22;;
24729;SDS011;12832;52.392;13.066;2023-02-15T03:01:09;1.95;;;1.85;;
24729;SDS011;12832;52.392;13.066;2023-02-15T03:04:15;2.15;;;2.00;;
24729;SDS011;12832;52.392;13.066;2023-02-15T03:06:40;2.10;;;2.00;;
24729;SDS011;12832;52.392;13.066;2023-02-15T03:09:25;2.13;;;1.95;;
24729;SDS011;12832;52.392;13.066;2023-02-15T03:12:11;1.90;;;1.80;;
24729;SDS011;12832;52.392;13.066;2023-02-15T03:14:40;2.10;;;1.90;;
24729;SDS011;12832;52.392;13.066;2023-02-15T03:17:10;1.92;;;1.83;;
24729;SDS011;12832;52.392;13.066;2023-02-15T03:19:38;2.40;;;2.20;;
24729;SDS011;12832;52.392;13.066;2023-02-15T03:22:11;2.00;;;1.90;;
24729;SDS011;12832;52.392;13.066;2023-02-15T03:27:28;2.47;;;2.28;;
24729;SDS011;12832;52.392;13.066;2023-02-15T03:29:58;1.90;;;1.80;;
24729;SDS011;12832;52.392;13.066;2023-02-15T03:32:25;2.40;;;2.22;;
24729;SDS011;12832;52.392;13.066;2023-02-15T03:34:55;1.90;;;1.80;;
24729;SDS011;12832;52.392;13.066;2023-02-15T03:43:16;2.17;;;1.98;;
24729;SDS011;12832;52.392;13.066;2023-02-15T03:46:05;2.10;;;2.00;;
24729;SDS011;12832;52.392;13.066;2023-02-15T03:48:52;2.00;;;1.90;;
24729;SDS011;12832;52.392;13.066;2023-02-15T03:51:26;2.17;;;1.98;;
24729;SDS011;12832;52.392;13.066;2023-02-15T03:54:03;2.10;;;2.00;;
24729;SDS011;12832;52.392;13.066;2023-02-15T03:56:41;2.25;;;2.15;;
24729;SDS011;12832;52.392;13.066;2023-02-15T03:59:28;2.38;;;2.17;;
24729;SDS011;12832;52.392;13.066;2023-02-15T04:04:46;2.13;;;2.00;;
24729;SDS011;12832;52.392;13.066;2023-02-15T04:07:13;2.03;;;1.92;;
24729;SDS011;12832;52.392;13.066;2023-02-15T04:09:40;2.00;;;1.90;;
24729;SDS011;12832;52.392;13.066;2023-02-15T04:12:24;1.80;;;1.70;;
24729;SDS011;12832;52.392;13.066;2023-02-15T04:14:50;1.73;;;1.63;;
24729;SDS011;12832;52.392;13.066;2023-02-15T04:17:36;1.90;;;1.80;;
24729;SDS011;12832;52.392;13.066;2023-02-15T04:20:03;2.17;;;2.08;;
24729;SDS011;12832;52.392;13.066;2023-02-15T04:22:48;2.40;;;1.83;;
24729;SDS011;12832;52.392;13.066;2023-02-15T04:25:33;2.10;;;2.00;;
24729;SDS011;12832;52.392;13.066;2023-02-15T04:27:59;1.88;;;1.77;;
24729;SDS011;12832;52.392;13.066;2023-02-15T04:30:25;2.45;;;2.25;;
24729;SDS011;12832;52.392;13.066;2023-02-15T04:32:53;2.35;;;2.15;;
24729;SDS011;12832;52.392;13.066;2023-02-15T04:35:20;1.90;;;1.80;;
24729;SDS011;12832;52.392;13.066;2023-02-15T04:37:47;2.05;;;1.92;;
24729;SDS011;12832;52.392;13.066;2023-02-15T04:40:14;2.13;;;1.98;;
24729;SDS011;12832;52.392;13.066;2023-02-15T04:42:45;2.10;;;1.90;;
24729;SDS011;12832;52.392;13.066;2023-02-15T04:45:13;1.90;;;1.80;;
24729;SDS011;12832;52.392;13.066;2023-02-15T04:47:39;1.75;;;1.65;;
24729;SDS011;12832;52.392;13.066;2023-02-15T04:50:06;2.03;;;1.92;;
24729;SDS011;12832;52.392;13.066;2023-02-15T04:52:32;2.50;;;2.30;;
24729;SDS011;12832;52.392;13.066;2023-02-15T04:54:58;2.10;;;1.85;;
24729;SDS011;12832;52.392;13.066;2023-02-15T04:57:25;2.05;;;1.95;;
24729;SDS011;12832;52.392;13.066;2023-02-15T04:59:51;2.00;;;1.90;;
24729;SDS011;12832;52.392;13.066;2023-02-15T05:02:17;2.30;;;2.10;;
24729;SDS011;12832;52.392;13.066;2023-02-15T05:04:43;2.30;;;2.20;;
24729;SDS011;12832;52.392;13.066;2023-02-15T05:07:09;1.90;;;1.80;;
24729;SDS011;12832;52.392;13.066;2023-02-15T05:09:35;2.08;;;1.98;;
24729;SDS011;12832;52.392;13.066;2023-02-15T05:12:01;2.00;;;1.90;;
24729;SDS011;12832;52.392;13.066;2023-02-15T05:14:28;1.80;;;1.70;;
24729;SDS011;12832;52.392;13.066;2023-02-15T05:16:54;1.90;;;1.80;;
24729;SDS011;12832;52.392;13.066;2023-02-15T05:19:20;2.15;;;1.95;;
24729;SDS011;12832;52.392;13.066;2023-02-15T05:21:48;1.83;;;1.73;;
24729;SDS011;12832;52.392;13.066;2023-02-15T05:24:14;2.00;;;1.83;;
24729;SDS011;12832;52.392;13.066;2023-02-15T05:26:59;1.70;;;1.60;;
24729;SDS011;12832;52.392;13.066;2023-02-15T05:29:43;2.00;;;1.90;;
24729;SDS011;12832;52.392;13.066;2023-02-15T05:32:11;2.13;;;2.03;;
24729;SDS011;12832;52.392;13.066;2023-02-15T05:34:39;1.60;;;1.50;;
24729;SDS011;12832;52.392;13.066;2023-02-15T05:37:05;1.80;;;1.70;;
24729;SDS011;12832;52.392;13.066;2023-02-15T05:39:33;1.77;;;1.67;;
24729;SDS011;12832;52.392;13.066;2023-02-15T05:41:59;2.05;;;1.95;;
24729;SDS011;12832;52.392;13.066;2023-02-15T05:44:25;1.95;;;1.80;;
24729;SDS011;12832;52.392;13.066;2023-02-15T05:46:51;2.80;;;1.70;;
24729;SDS011;12832;52.392;13.066;2023-02-15T05:49:17;1.88;;;1.77;;
24729;SDS011;12832;52.392;13.066;2023-02-15T05:51:44;1.92;;;1.80;;
24729;SDS011;12832;52.392;13.066;2023-02-15T05:54:10;1.92;;;1.83;;
24729;SDS011;12832;52.392;13.066;2023-02-15T05:56:36;1.85;;;1.75;;
24729;SDS011;12832;52.392;13.066;2023-02-15T05:59:02;1.77;;;1.67;;
24729;SDS011;12832;52.392;13.066;2023-02-15T06:01:28;2.20;;;2.00;;
24729;SDS011;12832;52.392;13.066;2023-02-15T06:03:54;1.75;;;1.65;;
24729;SDS011;12832;52.392;13.066;2023-02-15T06:06:21;1.65;;;1.55;;
24729;SDS011;12832;52.392;13.066;2023-02-15T06:08:47;1.80;;;1.70;;
24729;SDS011;12832;52.392;13.066;2023-02-15T06:11:14;2.83;;;2.63;;
24729;SDS011;12832;52.392;13.066;2023-02-15T06:13:40;2.10;;;1.98;;
24729;SDS011;12832;52.392;13.066;2023-02-15T06:16:06;3.20;;;3.00;;
24729;SDS011;12832;52.392;13.066;2023-02-15T06:18:33;3.10;;;2.90;;
24729;SDS011;12832;52.392;13.066;2023-02-15T06:21:00;3.80;;;3.50;;
24729;SDS011;12832;52.392;13.066;2023-02-15T06:23:26;3.55;;;3.25;;
24729;SDS011;12832;52.392;13.066;2023-02-15T06:25:53;4.72;;;3.75;;
24729;SDS011;12832;52.392;13.066;2023-02-15T06:28:19;3.10;;;2.90;;
24729;SDS011;12832;52.392;13.066;2023-02-15T06:30:46;2.85;;;2.65;;
24729;SDS011;12832;52.392;13.066;2023-02-15T06:33:12;2.63;;;2.40;;
24729;SDS011;12832;52.392;13.066;2023-02-15T06:35:38;3.00;;;2.75;;
24729;SDS011;12832;52.392;13.066;2023-02-15T06:38:04;3.30;;;3.00;;
24729;SDS011;12832;52.392;13.066;2023-02-15T06:40:30;3.00;;;2.70;;
24729;SDS011;12832;52.392;13.066;2023-02-15T06:42:56;2.70;;;2.50;;
24729;SDS011;12832;52.392;13.066;2023-02-15T06:45:22;3.60;;;3.30;;
24729;SDS011;12832;52.392;13.066;2023-02-15T06:47:49;3.65;;;3.35;;
24729;SDS011;12832;52.392;13.066;2023-02-15T06:50:15;4.18;;;3.78;;
24729;SDS011;12832;52.392;13.066;2023-02-15T06:52:41;4.13;;;3.80;;
24729;SDS011;12832;52.392;13.066;2023-02-15T06:55:07;3.88;;;3.58;;
24729;SDS011;12832;52.392;13.066;2023-02-15T06:57:33;4.57;;;3.10;;
24729;SDS011;12832;52.392;13.066;2023-02-15T06:59:59;3.78;;;3.40;;
24729;SDS011;12832;52.392;13.066;2023-02-15T07:02:26;3.53;;;3.28;;
24729;SDS011;12832;52.392;13.066;2023-02-15T07:04:52;3.45;;;3.15;;
24729;SDS011;12832;52.392;13.066;2023-02-15T07:07:18;4.25;;;3.40;;
24729;SDS011;12832;52.392;13.066;2023-02-15T07:09:44;3.40;;;3.10;;
24729;SDS011;12832;52.392;13.066;2023-02-15T07:12:10;3.13;;;2.85;;
24729;SDS011;12832;52.392;13.066;2023-02-15T07:14:55;5.65;;;3.22;;
24729;SDS011;12832;52.392;13.066;2023-02-15T07:17:23;3.42;;;3.13;;
24729;SDS011;12832;52.392;13.066;2023-02-15T07:20:01;2.90;;;2.70;;
24729;SDS011;12832;52.392;13.066;2023-02-15T07:22:31;4.30;;;3.03;;
24729;SDS011;12832;52.392;13.066;2023-02-15T07:24:59;3.10;;;2.85;;
24729;SDS011;12832;52.392;13.066;2023-02-15T07:27:25;2.15;;;2.05;;
24729;SDS011;12832;52.392;13.066;2023-02-15T07:29:51;2.72;;;2.53;;
24729;SDS011;12832;52.392;13.066;2023-02-15T07:32:17;2.78;;;2.58;;
24729;SDS011;12832;52.392;13.066;2023-02-15T07:34:43;2.80;;;2.60;;
24729;SDS011;12832;52.392;13.066;2023-02-15T07:37:09;2.42;;;2.22;;
24729;SDS011;12832;52.392;13.066;2023-02-15T07:39:35;2.65;;;2.45;;
24729;SDS011;12832;52.392;13.066;2023-02-15T07:42:02;2.10;;;1.90;;
24729;SDS011;12832;52.392;13.066;2023-02-15T07:44:28;2.20;;;2.03;;
24729;SDS011;12832;52.392;13.066;2023-02-15T07:46:54;2.40;;;2.20;;
24729;SDS011;12832;52.392;13.066;2023-02-15T07:49:20;2.35;;;2.15;;
24729;SDS011;12832;52.392;13.066;2023-02-15T07:51:46;2.50;;;2.30;;
24729;SDS011;12832;52.392;13.066;2023-02-15T07:54:12;2.60;;;2.40;;
24729;SDS011;12832;52.392;13.066;2023-02-15T07:56:38;2.63;;;2.30;;
24729;SDS011;12832;52.392;13.066;2023-02-15T07:59:05;2.40;;;2.20;;
24729;SDS011;12832;52.392;13.066;2023-02-15T08:01:32;2.28;;;2.08;;
24729;SDS011;12832;52.392;13.066;2023-02-15T08:04:01;2.28;;;2.13;;
24729;SDS011;12832;52.392;13.066;2023-02-15T08:06:30;2.20;;;2.10;;
24729;SDS011;12832;52.392;13.066;2023-02-15T08:08:57;3.03;;;2.72;;
24729;SDS011;12832;52.392;13.066;2023-02-15T08:11:24;3.00;;;2.75;;
24729;SDS011;12832;52.392;13.066;2023-02-15T08:13:59;2.90;;;2.63;;
24729;SDS011;12832;52.392;13.066;2023-02-15T08:16:39;3.20;;;2.95;;
24729;SDS011;12832;52.392;13.066;2023-02-15T08:19:14;3.10;;;2.80;;
24729;SDS011;12832;52.392;13.066;2023-02-15T08:21:50;3.20;;;2.90;;
24729;SDS011;12832;52.392;13.066;2023-02-15T08:24:18;3.67;;;3.38;;
24729;SDS011;12832;52.392;13.066;2023-02-15T08:26:46;2.88;;;2.67;;
24729;SDS011;12832;52.392;13.066;2023-02-15T08:29:13;3.38;;;3.08;;
24729;SDS011;12832;52.392;13.066;2023-02-15T08:31:41;2.95;;;2.75;;
24729;SDS011;12832;52.392;13.066;2023-02-15T08:34:08;3.30;;;3.00;;
24729;SDS011;12832;52.392;13.066;2023-02-15T08:36:37;3.50;;;3.20;;
24729;SDS011;12832;52.392;13.066;2023-02-15T08:39:04;3.50;;;3.20;;
24729;SDS011;12832;52.392;13.066;2023-02-15T08:41:32;3.53;;;3.22;;
24729;SDS011;12832;52.392;13.066;2023-02-15T08:44:03;3.05;;;2.85;;
24729;SDS011;12832;52.392;13.066;2023-02-15T08:46:32;3.90;;;3.60;;
24729;SDS011;12832;52.392;13.066;2023-02-15T08:48:59;3.65;;;3.35;;
24729;SDS011;12832;52.392;13.066;2023-02-15T08:51:27;4.40;;;4.00;;
24729;SDS011;12832;52.392;13.066;2023-02-15T08:53:56;4.07;;;3.75;;
24729;SDS011;12832;52.392;13.066;2023-02-15T08:56:25;3.70;;;3.35;;
24729;SDS011;12832;52.392;13.066;2023-02-15T08:58:53;4.07;;;3.40;;
24729;SDS011;12832;52.392;13.066;2023-02-15T09:01:21;4.05;;;3.65;;
24729;SDS011;12832;52.392;13.066;2023-02-15T09:03:49;3.75;;;3.45;;
24729;SDS011;12832;52.392;13.066;2023-02-15T09:06:19;3.70;;;3.40;;
24729;SDS011;12832;52.392;13.066;2023-02-15T09:08:48;4.18;;;3.88;;
24729;SDS011;12832;52.392;13.066;2023-02-15T09:11:16;3.85;;;3.50;;
24729;SDS011;12832;52.392;13.066;2023-02-15T09:13:49;3.97;;;3.67;;
24729;SDS011;12832;52.392;13.066;2023-02-15T09:16:16;3.72;;;3.42;;
24729;SDS011;12832;52.392;13.066;2023-02-15T09:18:43;4.85;;;4.45;;
24729;SDS011;12832;52.392;13.066;2023-02-15T09:21:16;4.55;;;4.15;;
24729;SDS011;12832;52.392;13.066;2023-02-15T09:23:46;4.40;;;4.10;;
24729;SDS011;12832;52.392;13.066;2023-02-15T09:26:15;4.55;;;4.15;;
24729;SDS011;12832;52.392;13.066;2023-02-15T09:28:42;4.40;;;4.00;;
24729;SDS011;12832;52.392;13.066;2023-02-15T09:31:10;4.72;;;4.18;;
24729;SDS011;12832;52.392;13.066;2023-02-15T09:33:42;4.00;;;3.70;;
24729;SDS011;12832;52.392;13.066;2023-02-15T09:36:23;4.80;;;4.40;;
24729;SDS011;12832;52.392;13.066;2023-02-15T09:38:58;5.55;;;5.05;;
24729;SDS011;12832;52.392;13.066;2023-02-15T09:47:40;5.10;;;4.70;;
24729;SDS011;12832;52.392;13.066;2023-02-15T09:58:23;5.28;;;4.88;;
24729;SDS011;12832;52.392;13.066;2023-02-15T10:10:21;6.38;;;5.88;;
24729;SDS011;12832;52.392;13.066;2023-02-15T10:18:45;5.40;;;4.90;;
24729;SDS011;12832;52.392;13.066;2023-02-15T10:26:48;6.50;;;5.90;;
24729;SDS011;12832;52.392;13.066;2023-02-15T10:31:51;6.85;;;6.25;;
24729;SDS011;12832;52.392;13.066;2023-02-15T10:34:38;6.95;;;6.25;;
24729;SDS011;12832;52.392;13.066;2023-02-15T10:42:16;6.90;;;6.30;;
24729;SDS011;12832;52.392;13.066;2023-02-15T11:02:01;5.03;;;4.53;;
24729;SDS011;12832;52.392;13.066;2023-02-15T11:07:40;5.43;;;4.93;;
24729;SDS011;12832;52.392;13.066;2023-02-15T11:12:49;6.35;;;5.75;;
24729;SDS011;12832;52.392;13.066;2023-02-15T11:15:32;7.15;;;6.53;;
24729;SDS011;12832;52.392;13.066;2023-02-15T11:18:38;7.07;;;6.47;;
24729;SDS011;12832;52.392;13.066;2023-02-15T11:21:24;7.25;;;6.55;;
24729;SDS011;12832;52.392;13.066;2023-02-15T11:23:55;7.10;;;6.50;;
24729;SDS011;12832;52.392;13.066;2023-02-15T11:26:28;7.22;;;6.63;;
24729;SDS011;12832;52.392;13.066;2023-02-15T11:29:10;7.13;;;6.45;;
24729;SDS011;12832;52.392;13.066;2023-02-15T11:31:52;6.80;;;6.20;;
24729;SDS011;12832;52.392;13.066;2023-02-15T11:34:35;6.30;;;5.72;;
24729;SDS011;12832;52.392;13.066;2023-02-15T11:37:09;6.03;;;5.53;;
24729;SDS011;12832;52.392;13.066;2023-02-15T11:39:41;6.75;;;6.15;;
24729;SDS011;12832;52.392;13.066;2023-02-15T11:42:13;7.40;;;6.70;;
24729;SDS011;12832;52.392;13.066;2023-02-15T11:45:00;6.43;;;5.82;;
24729;SDS011;12832;52.392;13.066;2023-02-15T11:47:32;6.93;;;6.25;;
24729;SDS011;12832;52.392;13.066;2023-02-15T11:49:59;6.50;;;5.90;;
24729;SDS011;12832;52.392;13.066;2023-02-15T11:52:26;6.32;;;5.72;;
24729;SDS011;12832;52.392;13.066;2023-02-15T11:54:52;7.20;;;6.18;;
24729;SDS011;12832;52.392;13.066;2023-02-15T12:00:10;6.60;;;6.10;;
24729;SDS011;12832;52.392;13.066;2023-02-15T12:02:42;8.38;;;7.57;;
24729;SDS011;12832;52.392;13.066;2023-02-15T12:05:13;6.75;;;6.15;;
24729;SDS011;12832;52.392;13.066;2023-02-15T12:07:44;7.38;;;6.68;;
24729;SDS011;12832;52.392;13.066;2023-02-15T12:10:28;6.50;;;5.95;;
24729;SDS011;12832;52.392;13.066;2023-02-15T12:13:09;7.00;;;6.30;;
24729;SDS011;12832;52.392;13.066;2023-02-15T12:15:41;7.10;;;6.43;;
24729;SDS011;12832;52.392;13.066;2023-02-15T12:21:02;7.53;;;6.82;;
24729;SDS011;12832;52.392;13.066;2023-02-15T12:23:34;7.80;;;7.10;;
24729;SDS011;12832;52.392;13.066;2023-02-15T12:26:23;7.63;;;6.93;;
24729;SDS011;12832;52.392;13.066;2023-02-15T12:28:54;8.63;;;7.55;;
24729;SDS011;12832;52.392;13.066;2023-02-15T12:31:26;7.85;;;7.05;;
24729;SDS011;12832;52.392;13.066;2023-02-15T12:33:54;10.25;;;6.88;;
24729;SDS011;12832;52.392;13.066;2023-02-15T12:36:42;7.38;;;6.68;;
24729;SDS011;12832;52.392;13.066;2023-02-15T12:44:21;7.68;;;7.03;;
24729;SDS011;12832;52.392;13.066;2023-02-15T12:47:03;7.97;;;7.22;;
24729;SDS011;12832;52.392;13.066;2023-02-15T12:49:42;7.45;;;6.75;;
24729;SDS011;12832;52.392;13.066;2023-02-15T12:54:48;7.40;;;6.80;;
24729;SDS011;12832;52.392;13.066;2023-02-15T12:57:20;7.22;;;6.07;;
24729;SDS011;12832;52.392;13.066;2023-02-15T13:00:40;6.47;;;5.95;;
24729;SDS011;12832;52.392;13.066;2023-02-15T13:02:47;6.53;;;6.03;;
24729;SDS011;12832;52.392;13.066;2023-02-15T13:08:20;7.28;;;6.57;;
24729;SDS011;12832;52.392;13.066;2023-02-15T13:10:59;7.40;;;6.68;;
24729;SDS011;12832;52.392;13.066;2023-02-15T13:13:27;6.82;;;6.22;;
24729;SDS011;12832;52.392;13.066;2023-02-15T13:15:58;6.90;;;6.22;;
24729;SDS011;12832;52.392;13.066;2023-02-15T13:18:36;5.93;;;5.43;;
24729;SDS011;12832;52.392;13.066;2023-02-15T13:23:39;6.35;;;5.75;;
24729;SDS011;12832;52.392;13.066;2023-02-15T13:26:14;6.60;;;6.00;;
24729;SDS011;12832;52.392;13.066;2023-02-15T13:28:54;6.90;;;6.20;;
24729;SDS011;12832;52.392;13.066;2023-02-15T13:31:23;7.15;;;6.47;;
24729;SDS011;12832;52.392;13.066;2023-02-15T13:33:56;6.32;;;5.72;;
24729;SDS011;12832;52.392;13.066;2023-02-15T13:36:36;6.18;;;5.65;;
24729;SDS011;12832;52.392;13.066;2023-02-15T13:39:43;6.80;;;6.20;;
24729;SDS011;12832;52.392;13.066;2023-02-15T13:48:13;6.22;;;5.63;;
24729;SDS011;12832;52.392;13.066;2023-02-15T13:50:48;5.68;;;5.15;;
24729;SDS011;12832;52.392;13.066;2023-02-15T13:53:50;5.68;;;5.18;;
24729;SDS011;12832;52.392;13.066;2023-02-15T13:59:06;5.47;;;4.97;;
24729;SDS011;12832;52.392;13.066;2023-02-15T14:01:49;5.38;;;4.88;;
24729;SDS011;12832;52.392;13.066;2023-02-15T14:07:10;4.30;;;3.97;;
24729;SDS011;12832;52.392;13.066;2023-02-15T14:15:28;4.75;;;4.35;;
24729;SDS011;12832;52.392;13.066;2023-02-15T14:18:51;4.82;;;4.43;;
24729;SDS011;12832;52.392;13.066;2023-02-15T14:21:34;4.85;;;4.35;;
24729;SDS011;12832;52.392;13.066;2023-02-15T14:24:25;4.30;;;3.90;;
24729;SDS011;12832;52.392;13.066;2023-02-15T14:27:23;4.43;;;4.05;;
24729;SDS011;12832;52.392;13.066;2023-02-15T14:30:02;4.57;;;4.10;;
24729;SDS011;12832;52.392;13.066;2023-02-15T14:32:42;4.90;;;4.32;;
24729;SDS011;12832;52.392;13.066;2023-02-15T14:35:19;4.90;;;4.40;;
24729;SDS011;12832;52.392;13.066;2023-02-15T14:40:51;4.25;;;3.78;;
24729;SDS011;12832;52.392;13.066;2023-02-15T14:46:45;3.25;;;3.05;;
24729;SDS011;12832;52.392;13.066;2023-02-15T14:49:22;3.60;;;3.30;;
24729;SDS011;12832;52.392;13.066;2023-02-15T14:51:56;3.78;;;3.47;;
24729;SDS011;12832;52.392;13.066;2023-02-15T15:02:10;5.63;;;4.20;;
24729;SDS011;12832;52.392;13.066;2023-02-15T15:12:55;3.60;;;3.30;;
24729;SDS011;12832;52.392;13.066;2023-02-15T15:15:53;3.45;;;3.15;;
24729;SDS011;12832;52.392;13.066;2023-02-15T15:21:10;3.92;;;3.42;;
24729;SDS011;12832;52.392;13.066;2023-02-15T15:23:41;4.43;;;3.30;;
24729;SDS011;12832;52.392;13.066;2023-02-15T15:26:23;3.25;;;2.95;;
24729;SDS011;12832;52.392;13.066;2023-02-15T15:31:18;3.28;;;3.08;;
24729;SDS011;12832;52.392;13.066;2023-02-15T15:48:40;3.45;;;3.15;;
24729;SDS011;12832;52.392;13.066;2023-02-15T15:51:12;4.53;;;3.28;;
24729;SDS011;12832;52.392;13.066;2023-02-15T15:53:45;3.30;;;3.00;;
24729;SDS011;12832;52.392;13.066;2023-02-15T15:56:17;3.33;;;3.03;;
24729;SDS011;12832;52.392;13.066;2023-02-15T15:58:50;3.50;;;3.15;;
24729;SDS011;12832;52.392;13.066;2023-02-15T16:01:30;3.30;;;3.00;;
24729;SDS011;12832;52.392;13.066;2023-02-15T16:04:00;5.43;;;3.13;;
24729;SDS011;12832;52.392;13.066;2023-02-15T16:06:31;3.20;;;2.95;;
24729;SDS011;12832;52.392;13.066;2023-02-15T16:09:16;2.85;;;2.58;;
24729;SDS011;12832;52.392;13.066;2023-02-15T16:11:43;2.67;;;2.47;;
24729;SDS011;12832;52.392;13.066;2023-02-15T16:14:14;2.38;;;2.17;;
24729;SDS011;12832;52.392;13.066;2023-02-15T16:16:51;2.45;;;2.25;;
24729;SDS011;12832;52.392;13.066;2023-02-15T16:19:21;2.78;;;2.58;;
24729;SDS011;12832;52.392;13.066;2023-02-15T16:21:51;2.53;;;2.33;;
24729;SDS011;12832;52.392;13.066;2023-02-15T16:24:24;2.47;;;2.30;;
24729;SDS011;12832;52.392;13.066;2023-02-15T16:29:34;2.40;;;2.20;;
24729;SDS011;12832;52.392;13.066;2023-02-15T16:32:01;2.13;;;1.92;;
24729;SDS011;12832;52.392;13.066;2023-02-15T16:34:30;3.33;;;2.25;;
24729;SDS011;12832;52.392;13.066;2023-02-15T16:37:19;2.58;;;2.38;;
24729;SDS011;12832;52.392;13.066;2023-02-15T16:39:47;2.15;;;1.95;;
24729;SDS011;12832;52.392;13.066;2023-02-15T16:42:13;2.30;;;2.10;;
24729;SDS011;12832;52.392;13.066;2023-02-15T16:44:44;2.17;;;1.98;;
24729;SDS011;12832;52.392;13.066;2023-02-15T16:47:18;1.90;;;1.80;;
24729;SDS011;12832;52.392;13.066;2023-02-15T16:49:51;1.83;;;1.73;;
24729;SDS011;12832;52.392;13.066;2023-02-15T16:52:22;1.90;;;1.77;;
24729;SDS011;12832;52.392;13.066;2023-02-15T16:54:52;2.35;;;2.15;;
24729;SDS011;12832;52.392;13.066;2023-02-15T16:57:28;2.30;;;2.10;;
24729;SDS011;12832;52.392;13.066;2023-02-15T17:00:06;2.10;;;2.00;;
24729;SDS011;12832;52.392;13.066;2023-02-15T17:02:40;2.92;;;1.88;;
24729;SDS011;12832;52.392;13.066;2023-02-15T17:05:22;2.00;;;1.90;;
24729;SDS011;12832;52.392;13.066;2023-02-15T17:08:03;2.05;;;1.85;;
24729;SDS011;12832;52.392;13.066;2023-02-15T17:10:44;1.67;;;1.58;;
24729;SDS011;12832;52.392;13.066;2023-02-15T17:13:26;2.17;;;1.98;;
24729;SDS011;12832;52.392;13.066;2023-02-15T17:18:27;2.00;;;1.90;;
24729;SDS011;12832;52.392;13.066;2023-02-15T17:21:01;1.90;;;1.80;;
24729;SDS011;12832;52.392;13.066;2023-02-15T17:23:42;2.13;;;1.92;;
24729;SDS011;12832;52.392;13.066;2023-02-15T17:26:11;2.33;;;2.13;;
24729;SDS011;12832;52.392;13.066;2023-02-15T17:28:50;2.67;;;2.13;;
24729;SDS011;12832;52.392;13.066;2023-02-15T17:31:20;2.40;;;2.20;;
24729;SDS011;12832;52.392;13.066;2023-02-15T17:33:47;2.10;;;2.00;;
24729;SDS011;12832;52.392;13.066;2023-02-15T17:36:17;2.30;;;2.20;;
24729;SDS011;12832;52.392;13.066;2023-02-15T17:41:23;2.40;;;2.20;;
24729;SDS011;12832;52.392;13.066;2023-02-15T17:43:50;3.13;;;2.50;;
24729;SDS011;12832;52.392;13.066;2023-02-15T17:46:16;2.28;;;2.08;;
24729;SDS011;12832;52.392;13.066;2023-02-15T17:48:46;2.28;;;2.08;;
24729;SDS011;12832;52.392;13.066;2023-02-15T17:51:13;2.15;;;2.05;;
24729;SDS011;12832;52.392;13.066;2023-02-15T17:53:41;2.55;;;2.35;;
24729;SDS011;12832;52.392;13.066;2023-02-15T17:56:30;2.50;;;2.30;;
24729;SDS011;12832;52.392;13.066;2023-02-15T17:59:00;2.92;;;2.70;;
24729;SDS011;12832;52.392;13.066;2023-02-15T18:01:26;2.67;;;2.47;;
24729;SDS011;12832;52.392;13.066;2023-02-15T18:04:11;2.60;;;2.40;;
24729;SDS011;12832;52.392;13.066;2023-02-15T18:06:58;2.92;;;2.63;;
24729;SDS011;12832;52.392;13.066;2023-02-15T18:09:43;2.50;;;2.30;;
24729;SDS011;12832;52.392;13.066;2023-02-15T18:12:29;2.75;;;2.55;;
24729;SDS011;12832;52.392;13.066;2023-02-15T18:14:57;2.40;;;2.20;;